Radiosonde details



Informationen :

Serial : X5211309
Type : Vaisala RS41-NG
Date of production : 22.12.2025
Frequency : 404.800MHz
Launchsite : Boise Air Terminal
Nearest town : Idaho City, US (24.7km)

Altitude (Max) : 32901m at 2026-08-31 18:40:52
Speed (Max) : 80km/h at altitude 30295m

Average speed : 30km/h
Average ascent rate : 5m/s
Average descent rate : -6m/s
Ascent rate (Max) : 11.4m/s
Descent rate (Max): -35.9m/s

First frame :
KE7DJD at 2026-08-31 17:03:32 at altitude 1462m (OG: 1420m)
Last frame :
KE7DJD at 2026-08-31 20:12:20 at altitude 2758m (OG: 2716m)

Flighttime : 3h8m48s
Ascent time : 1h37m20s
Descent time : 1h31m28s
Uptime : -
Killtimer : 6h59m

Distance (Straight line distance): 62km

Distance (Route):


Frames : 538


Measurement :

Temperature : 10.6°C
Humidity : 25.9%
Pressure : 0hPa


Vertical profile (SkewT) :


Elevation profile :



Receiving stations :


Receiver Frames First received Last received
KE7DJD 538 2026-08-31 17:03:32 2026-08-31 20:12:20

Share per receiver :



All frames :


Receiver Date Latitude Longitude Direction Speed Altitude Climb Temperature Humidity Pressure Voltage Killtimer Uptime BKT XDATA
KE7DJD2026-08-31 20:12:2044.05034-115.8212352°24km/h2758m-2.3m/s10.6°C25.9%0hPa0V06:59:0000:00:0000:00:00
KE7DJD2026-08-31 20:12:0044.04969-115.8224256°22km/h2804m-2.5m/s10.1°C26.5%0hPa0V07:00:0000:00:0000:00:00
KE7DJD2026-08-31 20:11:3944.04902-115.8236149°24km/h2856m-2.4m/s9.7°C26.6%0hPa0V07:00:0000:00:0000:00:00
KE7DJD2026-08-31 20:11:1844.04829-115.8250258°22km/h2906m-2.3m/s9.4°C28.3%0hPa0V07:00:0000:00:0000:00:00
KE7DJD2026-08-31 20:10:5844.04762-115.8263460°22km/h2950m-2.1m/s9.0°C29.4%0hPa0V07:00:0000:00:0000:00:00
KE7DJD2026-08-31 20:10:3744.04690-115.8277354°26km/h2995m-2.3m/s8.6°C30.2%0hPa0V07:00:0000:00:0000:00:00
KE7DJD2026-08-31 20:10:1744.04621-115.8290857°24km/h3042m-2.9m/s8.2°C29.9%0hPa0V07:01:0000:00:0000:00:00
KE7DJD2026-08-31 20:09:5744.04580-115.8303670°18km/h3105m-3.1m/s7.6°C30.8%0hPa0V07:01:0000:00:0000:00:00
KE7DJD2026-08-31 20:09:3644.04553-115.8316277°15km/h3157m-1.7m/s7.2°C31.2%0hPa0V07:02:0000:00:0000:00:00
KE7DJD2026-08-31 20:09:1644.04523-115.8326172°13km/h3193m-1.9m/s6.8°C31.9%0hPa0V07:02:0000:00:0000:00:00
KE7DJD2026-08-31 20:08:5544.04491-115.8335657°16km/h3237m-3.5m/s6.2°C33.0%0hPa0V07:02:0000:00:0000:00:00
KE7DJD2026-08-31 20:08:3544.04462-115.8343063°15km/h3283m-2.1m/s5.9°C34.2%0hPa0V07:03:0000:00:0000:00:00
KE7DJD2026-08-31 20:08:1544.04431-115.8351456°13km/h3323m-2.1m/s5.5°C32.5%0hPa0V07:03:0000:00:0000:00:00
KE7DJD2026-08-31 20:07:5444.04405-115.8359466°11km/h3376m-2.6m/s5.0°C33.4%0hPa0V07:04:0000:00:0000:00:00
KE7DJD2026-08-31 20:07:3344.04384-115.8366961°11km/h3431m-2.5m/s4.6°C33.7%0hPa0V07:04:0000:00:0000:00:00
KE7DJD2026-08-31 20:07:1244.04352-115.8373647°9km/h3485m-2.6m/s4.3°C31.6%0hPa0V07:05:0000:00:0000:00:00
KE7DJD2026-08-31 20:06:5244.04321-115.8379770°11km/h3535m-2.5m/s3.7°C31.5%0hPa0V07:05:0000:00:0000:00:00
KE7DJD2026-08-31 20:06:3244.04288-115.8386567°13km/h3585m-2.7m/s3.5°C30.4%0hPa0V07:05:0000:00:0000:00:00
KE7DJD2026-08-31 20:05:5144.04201-115.8405159°16km/h3690m-2.8m/s2.9°C32.6%0hPa0V07:06:0000:00:0000:00:00
KE7DJD2026-08-31 20:05:3044.04143-115.8416349°20km/h3746m-2.4m/s2.4°C33.7%0hPa0V07:06:0000:00:0000:00:00
KE7DJD2026-08-31 20:04:4944.04005-115.8441152°22km/h3851m-2.5m/s1.6°C30.2%0hPa0V07:06:0000:00:0000:00:00
KE7DJD2026-08-31 20:04:2844.03932-115.8456055°27km/h3901m-2.2m/s1.3°C31.7%0hPa0V07:07:0000:00:0000:00:00
KE7DJD2026-08-31 20:04:0744.03853-115.8472358°29km/h3947m-2.0m/s1.0°C31.3%0hPa0V07:07:0000:00:0000:00:00
KE7DJD2026-08-31 20:03:4744.03780-115.8489660°29km/h3987m-1.7m/s0.8°C30.8%0hPa0V07:08:0000:00:0000:00:00
KE7DJD2026-08-31 20:03:2744.03711-115.8508467°31km/h4023m-1.7m/s0.5°C32.4%0hPa0V07:08:0000:00:0000:00:00
KE7DJD2026-08-31 20:03:0644.03637-115.8529566°31km/h4059m-1.7m/s0.3°C32.6%0hPa0V07:08:0000:00:0000:00:00
KE7DJD2026-08-31 20:02:4644.03572-115.8549468°31km/h4093m-1.8m/s0.2°C27.7%0hPa0V07:09:0000:00:0000:00:00
KE7DJD2026-08-31 20:02:2644.03505-115.8569265°29km/h4130m-1.6m/s0.0°C22.6%0hPa0V07:09:0000:00:0000:00:00
KE7DJD2026-08-31 20:02:0544.03446-115.8588268°29km/h4165m-1.7m/s0.1°C17.5%0hPa0V07:10:0000:00:0000:00:00
KE7DJD2026-08-31 20:01:4444.03385-115.8610369°33km/h4202m-1.8m/s0.3°C18.9%0hPa0V07:10:0000:00:0000:00:00
KE7DJD2026-08-31 20:01:2444.03316-115.8632266°35km/h4239m-1.9m/s0.4°C7.4%0hPa0V07:10:0000:00:0000:00:00
KE7DJD2026-08-31 20:01:0444.03237-115.8652763°31km/h4279m-2.1m/s0.4°C3.4%0hPa0V07:11:0000:00:0000:00:00
KE7DJD2026-08-31 20:00:4344.03171-115.8674069°31km/h4324m-2.2m/s0.4°C8.8%0hPa0V07:11:0000:00:0000:00:00
KE7DJD2026-08-31 20:00:2244.03119-115.8696071°31km/h4371m-2.5m/s-0.0°C34.2%0hPa0V07:12:0000:00:0000:00:00
KE7DJD2026-08-31 19:59:4144.03016-115.8738967°31km/h4472m-2.7m/s-0.7°C38.8%0hPa0V07:12:0000:00:0000:00:00
KE7DJD2026-08-31 19:59:2044.02960-115.8759868°27km/h4527m-2.6m/s-1.1°C39.4%0hPa0V07:12:0000:00:0000:00:00
KE7DJD2026-08-31 19:59:0044.02910-115.8778970°31km/h4581m-2.7m/s-1.6°C40.2%0hPa0V07:12:0000:00:0000:00:00
KE7DJD2026-08-31 19:58:3944.02850-115.8799365°31km/h4639m-2.7m/s-1.9°C40.2%0hPa0V07:13:0000:00:0000:00:00
KE7DJD2026-08-31 19:58:1944.02782-115.8818267°31km/h4696m-2.9m/s-2.3°C40.0%0hPa0V07:13:0000:00:0000:00:00
KE7DJD2026-08-31 19:57:5944.02710-115.8837463°29km/h4752m-2.9m/s-2.7°C39.9%0hPa0V07:13:0000:00:0000:00:00
KE7DJD2026-08-31 19:57:3844.02631-115.8857665°31km/h4811m-2.7m/s-3.3°C41.8%0hPa0V07:14:0000:00:0000:00:00
KE7DJD2026-08-31 19:57:1744.02551-115.8877961°33km/h4869m-2.8m/s-3.8°C42.8%0hPa0V07:14:0000:00:0000:00:00
KE7DJD2026-08-31 19:56:5644.02460-115.8898858°33km/h4926m-2.7m/s-4.2°C42.1%0hPa0V07:15:0000:00:0000:00:00
KE7DJD2026-08-31 19:56:3544.02367-115.8919657°33km/h4980m-2.5m/s-4.7°C41.8%0hPa0V07:15:0000:00:0000:00:00
KE7DJD2026-08-31 19:56:1544.02273-115.8939556°35km/h5030m-2.3m/s-5.1°C43.0%0hPa0V07:15:0000:00:0000:00:00
KE7DJD2026-08-31 19:55:5444.02173-115.8960658°33km/h5079m-2.3m/s-5.4°C41.6%0hPa0V07:16:0000:00:0000:00:00
KE7DJD2026-08-31 19:55:3444.02079-115.8980556°33km/h5126m-2.2m/s-5.6°C40.9%0hPa0V07:16:0000:00:0000:00:00
KE7DJD2026-08-31 19:55:1444.01990-115.8999957°33km/h5171m-2.2m/s-5.9°C41.2%0hPa0V07:17:0000:00:0000:00:00
KE7DJD2026-08-31 19:54:5344.01899-115.9020261°31km/h5218m-2.3m/s-6.3°C42.0%0hPa0V07:17:0000:00:0000:00:00
KE7DJD2026-08-31 19:54:3444.01815-115.9038857°29km/h5264m-2.3m/s-6.6°C42.5%0hPa0V07:17:0000:00:0000:00:00
KE7DJD2026-08-31 19:54:1244.01728-115.9057461°29km/h5312m-2.3m/s-6.9°C43.9%0hPa0V07:17:0000:00:0000:00:00
KE7DJD2026-08-31 19:53:5244.01651-115.9074861°29km/h5359m-2.5m/s-7.3°C44.1%0hPa0V07:17:0000:00:0000:00:00
KE7DJD2026-08-31 19:53:3144.01569-115.9093460°31km/h5410m-2.5m/s-7.7°C44.8%0hPa0V07:18:0000:00:0000:00:00
KE7DJD2026-08-31 19:53:1044.01486-115.9112259°29km/h5461m-2.4m/s-8.2°C45.5%0hPa0V07:18:0000:00:0000:00:00
KE7DJD2026-08-31 19:52:4944.01404-115.9130961°31km/h5513m-2.6m/s-8.6°C46.4%0hPa0V07:18:0000:00:0000:00:00
KE7DJD2026-08-31 19:52:2944.01319-115.9148859°31km/h5563m-2.7m/s-9.0°C46.2%0hPa0V07:19:0000:00:0000:00:00
KE7DJD2026-08-31 19:52:0844.01223-115.9167251°33km/h5616m-2.6m/s-9.4°C45.0%0hPa0V07:19:0000:00:0000:00:00
KE7DJD2026-08-31 19:51:4844.01119-115.9184248°33km/h5667m-2.6m/s-9.8°C46.2%0hPa0V07:20:0000:00:0000:00:00
KE7DJD2026-08-31 19:51:2744.01002-115.9202247°33km/h5721m-2.7m/s-10.2°C45.5%0hPa0V07:20:0000:00:0000:00:00
KE7DJD2026-08-31 19:51:0644.00869-115.9220044°37km/h5775m-2.6m/s-10.3°C40.9%0hPa0V07:20:0000:00:0000:00:00
KE7DJD2026-08-31 19:50:4644.00730-115.9237442°40km/h5827m-2.6m/s-10.7°C42.3%0hPa0V07:21:0000:00:0000:00:00
KE7DJD2026-08-31 19:50:2544.00575-115.9256642°38km/h5883m-2.8m/s-11.0°C42.0%0hPa0V07:21:0000:00:0000:00:00
KE7DJD2026-08-31 19:50:0544.00430-115.9275644°38km/h5939m-3.0m/s-11.1°C41.6%0hPa0V07:22:0000:00:0000:00:00
KE7DJD2026-08-31 19:49:4444.00276-115.9296343°42km/h5998m-3.2m/s-11.5°C42.2%0hPa0V07:22:0000:00:0000:00:00
KE7DJD2026-08-31 19:49:2444.00116-115.9316142°44km/h6056m-2.7m/s-11.9°C42.7%0hPa0V07:22:0000:00:0000:00:00
KE7DJD2026-08-31 19:49:0443.99951-115.9336741°47km/h6109m-2.7m/s-12.2°C43.4%0hPa0V07:23:0000:00:0000:00:00
KE7DJD2026-08-31 19:48:4443.99768-115.9357338°49km/h6163m-2.7m/s-12.5°C43.7%0hPa0V07:23:0000:00:0000:00:00
KE7DJD2026-08-31 19:48:2343.99585-115.9376641°38km/h6217m-2.6m/s-12.4°C39.4%0hPa0V07:23:0000:00:0000:00:00
KE7DJD2026-08-31 19:48:0243.99427-115.9394237°40km/h6272m-2.7m/s-12.9°C40.7%0hPa0V07:23:0000:00:0000:00:00
KE7DJD2026-08-31 19:47:4143.99266-115.9411441°37km/h6322m-2.0m/s-13.4°C41.7%0hPa0V07:23:0000:00:0000:00:00
KE7DJD2026-08-31 19:47:2043.99103-115.9428638°37km/h6363m-2.3m/s-13.8°C42.9%0hPa0V07:24:0000:00:0000:00:00
KE7DJD2026-08-31 19:46:5943.98947-115.9446141°37km/h6407m-2.0m/s-14.2°C44.2%0hPa0V07:24:0000:00:0000:00:00
KE7DJD2026-08-31 19:46:3843.98798-115.9463038°37km/h6457m-2.6m/s-14.6°C44.7%0hPa0V07:25:0000:00:0000:00:00
KE7DJD2026-08-31 19:46:1843.98662-115.9476935°35km/h6505m-2.4m/s-14.6°C43.0%0hPa0V07:25:0000:00:0000:00:00
KE7DJD2026-08-31 19:45:5743.98519-115.9491639°31km/h6553m-2.3m/s-14.6°C41.5%0hPa0V07:26:0000:00:0000:00:00
KE7DJD2026-08-31 19:45:3643.98387-115.9505136°31km/h6602m-2.3m/s-15.1°C42.6%0hPa0V07:26:0000:00:0000:00:00
KE7DJD2026-08-31 19:45:1543.98271-115.9519250°27km/h6648m-2.1m/s-15.3°C43.1%0hPa0V07:26:0000:00:0000:00:00
KE7DJD2026-08-31 19:44:5543.98183-115.9533253°29km/h6690m-2.2m/s-15.3°C40.5%0hPa0V07:27:0000:00:0000:00:00
KE7DJD2026-08-31 19:44:3443.98095-115.9548456°24km/h6735m-2.2m/s-15.6°C40.7%0hPa0V07:27:0000:00:0000:00:00
KE7DJD2026-08-31 19:44:1443.98010-115.9563855°31km/h6779m-2.2m/s-15.9°C39.3%0hPa0V07:28:0000:00:0000:00:00
KE7DJD2026-08-31 19:43:5343.97907-115.9579948°27km/h6827m-2.3m/s-16.0°C36.7%0hPa0V07:28:0000:00:0000:00:00
KE7DJD2026-08-31 19:43:3243.97808-115.9594546°29km/h6878m-2.5m/s-16.5°C37.8%0hPa0V07:28:0000:00:0000:00:00
KE7DJD2026-08-31 19:43:1143.97704-115.9608747°27km/h6932m-2.7m/s-17.0°C38.9%0hPa0V07:29:0000:00:0000:00:00
KE7DJD2026-08-31 19:42:5143.97601-115.9621744°27km/h6985m-2.6m/s-17.4°C39.3%0hPa0V07:29:0000:00:0000:00:00
KE7DJD2026-08-31 19:42:3043.97485-115.9635141°27km/h7041m-2.8m/s-17.8°C39.7%0hPa0V07:29:0000:00:0000:00:00
KE7DJD2026-08-31 19:42:0943.97365-115.9648336°29km/h7098m-2.6m/s-18.3°C40.6%0hPa0V07:29:0000:00:0000:00:00
KE7DJD2026-08-31 19:41:4843.97245-115.9660339°27km/h7155m-2.9m/s-18.7°C42.0%0hPa0V07:29:0000:00:0000:00:00
KE7DJD2026-08-31 19:41:2743.97131-115.9672540°26km/h7212m-2.7m/s-19.1°C42.7%0hPa0V07:30:0000:00:0000:00:00
KE7DJD2026-08-31 19:41:0743.97024-115.9684144°29km/h7267m-2.8m/s-19.4°C42.7%0hPa0V07:30:0000:00:0000:00:00
KE7DJD2026-08-31 19:40:4643.96912-115.9696737°26km/h7325m-2.9m/s-19.7°C41.2%0hPa0V07:31:0000:00:0000:00:00
KE7DJD2026-08-31 19:40:2543.96795-115.9708232°26km/h7383m-2.9m/s-20.1°C42.2%0hPa0V07:31:0000:00:0000:00:00
KE7DJD2026-08-31 19:40:0443.96681-115.9719538°27km/h7444m-3.0m/s-20.6°C43.8%0hPa0V07:31:0000:00:0000:00:00
KE7DJD2026-08-31 19:39:4443.96577-115.9730034°26km/h7501m-3.0m/s-21.1°C45.0%0hPa0V07:32:0000:00:0000:00:00
KE7DJD2026-08-31 19:39:2343.96473-115.9741337°27km/h7561m-2.9m/s-21.6°C45.4%0hPa0V07:32:0000:00:0000:00:00
KE7DJD2026-08-31 19:39:0243.96362-115.9752036°27km/h7621m-2.8m/s-22.0°C45.1%0hPa0V07:33:0000:00:0000:00:00
KE7DJD2026-08-31 19:38:4243.96251-115.9762331°27km/h7678m-2.9m/s-22.4°C46.3%0hPa0V07:33:0000:00:0000:00:00
KE7DJD2026-08-31 19:38:2143.96128-115.9772632°29km/h7739m-3.1m/s-22.9°C46.6%0hPa0V07:33:0000:00:0000:00:00
KE7DJD2026-08-31 19:38:0143.96009-115.9782325°27km/h7797m-2.8m/s-23.1°C44.4%0hPa0V07:34:0000:00:0000:00:00
KE7DJD2026-08-31 19:37:4143.95889-115.9790630°24km/h7856m-3.2m/s-23.4°C42.5%0hPa0V07:34:0000:00:0000:00:00
KE7DJD2026-08-31 19:37:2043.95767-115.9799128°24km/h7918m-2.9m/s-23.9°C40.7%0hPa0V07:34:0000:00:0000:00:00
KE7DJD2026-08-31 19:36:5943.95655-115.9806925°22km/h7980m-2.8m/s-24.3°C36.9%0hPa0V07:34:0000:00:0000:00:00
KE7DJD2026-08-31 19:36:3843.95553-115.9814727°22km/h8042m-2.9m/s-24.8°C36.5%0hPa0V07:34:0000:00:0000:00:00
KE7DJD2026-08-31 19:36:1843.95458-115.9822834°20km/h8100m-2.9m/s-25.3°C38.2%0hPa0V07:35:0000:00:0000:00:00
KE7DJD2026-08-31 19:35:5743.95354-115.9831733°24km/h8161m-2.9m/s-25.8°C39.9%0hPa0V07:35:0000:00:0000:00:00
KE7DJD2026-08-31 19:35:3643.95247-115.9841130°24km/h8223m-3.1m/s-26.3°C41.9%0hPa0V07:36:0000:00:0000:00:00
KE7DJD2026-08-31 19:35:1543.95130-115.9850628°27km/h8285m-3.1m/s-26.8°C42.3%0hPa0V07:36:0000:00:0000:00:00
KE7DJD2026-08-31 19:34:5443.95005-115.9859325°27km/h8348m-2.9m/s-27.4°C43.2%0hPa0V07:37:0000:00:0000:00:00
KE7DJD2026-08-31 19:34:3343.94883-115.9867328°27km/h8410m-3.2m/s-27.9°C43.8%0hPa0V07:37:0000:00:0000:00:00
KE7DJD2026-08-31 19:34:1243.94768-115.9874926°26km/h8473m-3.2m/s-28.5°C41.4%0hPa0V07:37:0000:00:0000:00:00
KE7DJD2026-08-31 19:33:5243.94659-115.9880212°22km/h8534m-3.0m/s-28.9°C39.6%0hPa0V07:38:0000:00:0000:00:00
KE7DJD2026-08-31 19:33:3143.94543-115.9884913°22km/h8599m-3.1m/s-29.5°C41.9%0hPa0V07:38:0000:00:0000:00:00
KE7DJD2026-08-31 19:33:1143.94432-115.9888814°24km/h8660m-3.1m/s-30.0°C38.6%0hPa0V07:39:0000:00:0000:00:00
KE7DJD2026-08-31 19:32:5043.94315-115.9892220°22km/h8726m-3.1m/s-30.6°C36.1%0hPa0V07:39:0000:00:0000:00:00
KE7DJD2026-08-31 19:32:3043.94205-115.9895224km/h8790m-3.3m/s-31.1°C40.1%0hPa0V07:39:0000:00:0000:00:00
KE7DJD2026-08-31 19:32:0943.94085-115.9898110°22km/h8857m-3.3m/s-31.7°C44.7%0hPa0V07:40:0000:00:0000:00:00
KE7DJD2026-08-31 19:31:4843.93957-115.98990354°29km/h8926m-3.4m/s-32.0°C38.0%0hPa0V07:40:0000:00:0000:00:00
KE7DJD2026-08-31 19:31:2743.93804-115.98981357°27km/h8994m-3.2m/s-32.5°C33.0%0hPa0V07:40:0000:00:0000:00:00
KE7DJD2026-08-31 19:31:0743.93655-115.98965353°29km/h9060m-3.3m/s-33.0°C36.2%0hPa0V07:40:0000:00:0000:00:00
KE7DJD2026-08-31 19:30:4643.93495-115.9894931km/h9130m-3.3m/s-33.6°C38.6%0hPa0V07:40:0000:00:0000:00:00
KE7DJD2026-08-31 19:30:2643.93343-115.98937353°26km/h9198m-3.5m/s-34.3°C40.7%0hPa0V07:41:0000:00:0000:00:00
KE7DJD2026-08-31 19:30:0543.93184-115.98910347°33km/h9269m-3.7m/s-35.0°C41.2%0hPa0V07:41:0000:00:0000:00:00
KE7DJD2026-08-31 19:29:4543.93036-115.9887529km/h9337m-3.6m/s-35.3°C32.5%0hPa0V07:42:0000:00:0000:00:00
KE7DJD2026-08-31 19:29:0443.92793-115.98835344°20km/h9476m-3.7m/s-36.4°C35.4%0hPa0V07:42:0000:00:0000:00:00
KE7DJD2026-08-31 19:28:4343.92679-115.98820361°22km/h9548m-3.2m/s-37.1°C36.9%0hPa0V07:43:0000:00:0000:00:00
KE7DJD2026-08-31 19:28:2343.92580-115.9882020km/h9617m-3.6m/s-37.7°C42.0%0hPa0V07:43:0000:00:0000:00:00
KE7DJD2026-08-31 19:28:0243.92484-115.98820348°15km/h9690m-3.6m/s-38.4°C51.5%0hPa0V07:44:0000:00:0000:00:00
KE7DJD2026-08-31 19:27:4143.92411-115.98797317°15km/h9766m-3.9m/s-39.0°C53.3%0hPa0V07:44:0000:00:0000:00:00
KE7DJD2026-08-31 19:27:2043.92360-115.98791339°7km/h9844m-4.3m/s-39.7°C54.3%0hPa0V07:44:0000:00:0000:00:00
KE7DJD2026-08-31 19:26:5943.92323-115.98786358°5km/h9924m-3.9m/s-40.2°C47.8%0hPa0V07:45:0000:00:0000:00:00
KE7DJD2026-08-31 19:26:3943.92303-115.98776318°9km/h10002m-4.2m/s-40.7°C39.5%0hPa0V07:45:0000:00:0000:00:00
KE7DJD2026-08-31 19:26:1943.92287-115.98749319°4km/h10078m-3.7m/s-41.4°C40.1%0hPa0V07:46:0000:00:0000:00:00
KE7DJD2026-08-31 19:25:5843.92274-115.98708256°11km/h10156m-4.1m/s-42.1°C42.9%0hPa0V07:46:0000:00:0000:00:00
KE7DJD2026-08-31 19:25:3843.92260-115.98669268°11km/h10232m-4.0m/s-42.9°C45.3%0hPa0V07:46:0000:00:0000:00:00
KE7DJD2026-08-31 19:25:1743.92254-115.98627217°11km/h10313m-3.7m/s-43.5°C46.5%0hPa0V07:46:0000:00:0000:00:00
KE7DJD2026-08-31 19:24:5543.92250-115.98583233°13km/h10397m-4.1m/s-44.3°C48.6%0hPa0V07:46:0000:00:0000:00:00
KE7DJD2026-08-31 19:24:3543.92237-115.98536250°11km/h10473m-4.0m/s-45.0°C48.8%0hPa0V07:47:0000:00:0000:00:00
KE7DJD2026-08-31 19:24:1443.92216-115.98486242°11km/h10553m-3.9m/s-45.5°C44.0%0hPa0V07:47:0000:00:0000:00:00
KE7DJD2026-08-31 19:23:5343.92167-115.98427269°9km/h10634m-4.5m/s-46.1°C40.4%0hPa0V07:47:0000:00:0000:00:00
KE7DJD2026-08-31 19:23:3343.92106-115.98382298°7km/h10711m-3.7m/s-46.7°C39.9%0hPa0V07:48:0000:00:0000:00:00
KE7DJD2026-08-31 19:23:1343.92042-115.98345298°11km/h10786m-4.0m/s-47.2°C38.9%0hPa0V07:48:0000:00:0000:00:00
KE7DJD2026-08-31 19:22:5243.91978-115.98306304°9km/h10865m-3.7m/s-47.9°C39.5%0hPa0V07:49:0000:00:0000:00:00
KE7DJD2026-08-31 19:22:3143.91906-115.98264322°15km/h10946m-3.8m/s-48.5°C38.2%0hPa0V07:49:0000:00:0000:00:00
KE7DJD2026-08-31 19:22:1043.91830-115.98218340°11km/h11028m-3.6m/s-49.1°C34.9%0hPa0V07:49:0000:00:0000:00:00
KE7DJD2026-08-31 19:21:5043.91744-115.98177327°15km/h11106m-4.0m/s-49.7°C36.6%0hPa0V07:50:0000:00:0000:00:00
KE7DJD2026-08-31 19:21:2943.91657-115.98122338°15km/h11190m-3.9m/s-50.5°C38.5%0hPa0V07:50:0000:00:0000:00:00
KE7DJD2026-08-31 19:21:0943.91571-115.98072327°15km/h11270m-3.8m/s-51.0°C38.1%0hPa0V07:51:0000:00:0000:00:00
KE7DJD2026-08-31 19:20:4943.91473-115.98016327°29km/h11351m-4.6m/s-51.4°C34.0%0hPa0V07:51:0000:00:0000:00:00
KE7DJD2026-08-31 19:20:2843.91344-115.97949336°27km/h11436m-4.1m/s-52.0°C33.2%0hPa0V07:51:0000:00:0000:00:00
KE7DJD2026-08-31 19:20:0743.91190-115.97870336°26km/h11524m-3.6m/s-52.6°C32.7%0hPa0V07:51:0000:00:0000:00:00
KE7DJD2026-08-31 19:19:4643.91017-115.97775329°29km/h11612m-4.1m/s-53.2°C33.3%0hPa0V07:51:0000:00:0000:00:00
KE7DJD2026-08-31 19:19:2443.90839-115.97658332°24km/h11706m-4.2m/s-53.8°C34.1%0hPa0V07:52:0000:00:0000:00:00
KE7DJD2026-08-31 19:19:0343.90673-115.97539338°24km/h11795m-4.3m/s-54.8°C35.5%0hPa0V07:52:0000:00:0000:00:00
KE7DJD2026-08-31 19:18:4343.90526-115.97415322°24km/h11880m-4.1m/s-55.0°C34.3%0hPa0V07:53:0000:00:0000:00:00
KE7DJD2026-08-31 19:18:2343.90390-115.97303318°20km/h11967m-3.8m/s-55.4°C30.7%0hPa0V07:53:0000:00:0000:00:00
KE7DJD2026-08-31 19:18:0343.90255-115.97195318°24km/h12054m-4.1m/s-56.1°C31.0%0hPa0V07:53:0000:00:0000:00:00
KE7DJD2026-08-31 19:17:4243.90105-115.97083327°20km/h12144m-4.2m/s-56.6°C29.4%0hPa0V07:54:0000:00:0000:00:00
KE7DJD2026-08-31 19:17:2243.89959-115.96980320°22km/h12229m-4.2m/s-56.9°C28.6%0hPa0V07:54:0000:00:0000:00:00
KE7DJD2026-08-31 19:17:0143.89809-115.96880332°18km/h12319m-4.2m/s-57.7°C28.4%0hPa0V07:55:0000:00:0000:00:00
KE7DJD2026-08-31 19:16:4043.89665-115.96810356°24km/h12412m-4.4m/s-58.1°C28.7%0hPa0V07:55:0000:00:0000:00:00
KE7DJD2026-08-31 19:16:1943.89517-115.9676714°29km/h12505m-4.6m/s-58.2°C27.4%0hPa0V07:55:0000:00:0000:00:00
KE7DJD2026-08-31 19:16:0043.89364-115.96721359°38km/h12599m-4.2m/s-59.2°C28.9%0hPa0V07:56:0000:00:0000:00:00
KE7DJD2026-08-31 19:15:3743.89240-115.96670346°33km/h12696m-4.3m/s-59.8°C28.8%0hPa0V07:56:0000:00:0000:00:00
KE7DJD2026-08-31 19:15:1743.89148-115.96619340°35km/h12785m-4.3m/s-60.1°C27.8%0hPa0V07:57:0000:00:0000:00:00
KE7DJD2026-08-31 19:14:5643.88998-115.96538348°47km/h12877m-4.5m/s-60.2°C26.9%0hPa0V07:57:0000:00:0000:00:00
KE7DJD2026-08-31 19:14:3543.88812-115.96468346°49km/h12970m-4.3m/s-61.2°C25.6%0hPa0V07:57:0000:00:0000:00:00
KE7DJD2026-08-31 19:14:1443.88625-115.96425344°40km/h13070m-4.7m/s-61.8°C22.9%0hPa0V07:57:0000:00:0000:00:00
KE7DJD2026-08-31 19:13:5343.88479-115.96451349°31km/h13164m-4.9m/s-60.1°C14.1%0hPa0V07:57:0000:00:0000:00:00
KE7DJD2026-08-31 19:13:3343.88349-115.9648442km/h13261m-4.9m/s-59.3°C10.8%0hPa0V07:58:0000:00:0000:00:00
KE7DJD2026-08-31 19:13:1243.88147-115.96518356°42km/h13360m-4.0m/s-59.9°C10.4%0hPa0V07:58:0000:00:0000:00:00
KE7DJD2026-08-31 19:12:5143.87931-115.96585360°44km/h13462m-5.3m/s-60.2°C9.4%0hPa0V07:58:0000:00:0000:00:00
KE7DJD2026-08-31 19:12:3043.87717-115.9671635km/h13561m-5.0m/s-60.2°C7.9%0hPa0V07:59:0000:00:0000:00:00
KE7DJD2026-08-31 19:12:1043.87545-115.9688318°37km/h13657m-4.4m/s-60.0°C6.7%0hPa0V07:59:0000:00:0000:00:00
KE7DJD2026-08-31 19:11:4943.87387-115.9705717°37km/h13763m-5.3m/s-60.0°C5.8%0hPa0V08:00:0000:00:0000:00:00
KE7DJD2026-08-31 19:11:2943.87202-115.9726023°55km/h13860m-5.4m/s-58.2°C4.8%0hPa0V08:00:0000:00:0000:00:00
KE7DJD2026-08-31 19:11:0943.87006-115.9751031°57km/h13960m-4.7m/s-58.7°C4.8%0hPa0V08:00:0000:00:0000:00:00
KE7DJD2026-08-31 19:10:4843.86814-115.9775428°38km/h14069m-5.2m/s-59.0°C4.5%0hPa0V08:01:0000:00:0000:00:00
KE7DJD2026-08-31 19:10:2843.86675-115.9798429°35km/h14177m-5.6m/s-58.8°C4.3%0hPa0V08:01:0000:00:0000:00:00
KE7DJD2026-08-31 19:10:0843.86542-115.9816914°38km/h14282m-5.9m/s-58.8°C3.9%0hPa0V08:02:0000:00:0000:00:00
KE7DJD2026-08-31 19:09:4743.86359-115.9836717°33km/h14394m-5.2m/s-58.2°C3.5%0hPa0V08:02:0000:00:0000:00:00
KE7DJD2026-08-31 19:09:2743.86172-115.9855620°31km/h14500m-5.0m/s-58.7°C3.3%0hPa0V08:02:0000:00:0000:00:00
KE7DJD2026-08-31 19:09:0643.85964-115.9873645°38km/h14609m-5.1m/s-58.3°C2.9%0hPa0V08:03:0000:00:0000:00:00
KE7DJD2026-08-31 19:08:4543.85766-115.9902667°47km/h14720m-5.5m/s-58.9°C2.8%0hPa0V08:03:0000:00:0000:00:00
KE7DJD2026-08-31 19:08:2543.85625-115.9938385°55km/h14827m-4.7m/s-58.3°C2.5%0hPa0V08:03:0000:00:0000:00:00
KE7DJD2026-08-31 19:08:0443.85557-115.9969581°53km/h14938m-5.6m/s-57.8°C2.2%0hPa0V08:03:0000:00:0000:00:00
KE7DJD2026-08-31 19:07:4343.85455-115.9989556°49km/h15049m-5.0m/s-56.6°C1.8%0hPa0V08:03:0000:00:0000:00:00
KE7DJD2026-08-31 19:07:2343.85268-116.0003739°60km/h15160m-5.4m/s-56.0°C1.8%0hPa0V08:04:0000:00:0000:00:00
KE7DJD2026-08-31 19:07:0243.85021-116.0021739°73km/h15275m-6.5m/s-57.0°C1.8%0hPa0V08:04:0000:00:0000:00:00
KE7DJD2026-08-31 19:06:4243.84785-116.0045542°77km/h15389m-6.7m/s-57.6°C1.9%0hPa0V08:05:0000:00:0000:00:00
KE7DJD2026-08-31 19:06:2243.84575-116.0074344°75km/h15508m-5.9m/s-57.6°C1.8%0hPa0V08:05:0000:00:0000:00:00
KE7DJD2026-08-31 19:06:0143.84387-116.0101540°62km/h15630m-5.5m/s-57.7°C1.8%0hPa0V08:05:0000:00:0000:00:00
KE7DJD2026-08-31 19:05:4143.84249-116.0125639°60km/h15743m-5.7m/s-56.8°C1.6%0hPa0V08:06:0000:00:0000:00:00
KE7DJD2026-08-31 19:05:2043.84080-116.0147827°62km/h15865m-5.8m/s-56.8°C1.6%0hPa0V08:06:0000:00:0000:00:00
KE7DJD2026-08-31 19:04:5943.83867-116.0171725°58km/h15987m-5.7m/s-57.2°C1.6%0hPa0V08:07:0000:00:0000:00:00
KE7DJD2026-08-31 19:04:3943.83673-116.0198227°53km/h16105m-5.9m/s-56.7°C1.6%0hPa0V08:07:0000:00:0000:00:00
KE7DJD2026-08-31 19:04:1843.83537-116.0225135°29km/h16228m-6.2m/s-57.0°C1.6%0hPa0V08:08:0000:00:0000:00:00
KE7DJD2026-08-31 19:03:5843.83441-116.0246114°22km/h16353m-6.7m/s-56.3°C1.6%0hPa0V08:08:0000:00:0000:00:00
KE7DJD2026-08-31 19:03:3743.83341-116.0263334°7km/h16482m-5.9m/s-55.8°C1.5%0hPa0V08:08:0000:00:0000:00:00
KE7DJD2026-08-31 19:03:1743.83217-116.0276318km/h16607m-6.2m/s-56.2°C1.5%0hPa0V08:08:0000:00:0000:00:00
KE7DJD2026-08-31 19:02:5643.83025-116.0292752°31km/h16737m-6.3m/s-56.7°C1.5%0hPa0V08:08:0000:00:0000:00:00
KE7DJD2026-08-31 19:02:3643.82830-116.0313159°27km/h16862m-6.4m/s-56.6°C1.4%0hPa0V08:09:0000:00:0000:00:00
KE7DJD2026-08-31 19:02:1643.82670-116.0334573°24km/h16986m-6.7m/s-57.0°C1.5%0hPa0V08:09:0000:00:0000:00:00
KE7DJD2026-08-31 19:01:5543.82542-116.0359396°44km/h17126m-8.0m/s-56.9°C1.5%0hPa0V08:09:0000:00:0000:00:00
KE7DJD2026-08-31 19:01:3543.82418-116.0384380°42km/h17267m-6.6m/s-55.4°C1.3%0hPa0V08:10:0000:00:0000:00:00
KE7DJD2026-08-31 19:01:1443.82284-116.0408288°38km/h17414m-7.0m/s-55.3°C1.4%0hPa0V08:10:0000:00:0000:00:00
KE7DJD2026-08-31 19:00:5343.82157-116.0426865°46km/h17562m-6.9m/s-55.6°C1.3%0hPa0V08:11:0000:00:0000:00:00
KE7DJD2026-08-31 19:00:3343.81977-116.0444957°49km/h17705m-7.3m/s-55.8°C1.3%0hPa0V08:11:0000:00:0000:00:00
KE7DJD2026-08-31 19:00:1243.81731-116.0461250°64km/h17852m-7.4m/s-55.5°C1.3%0hPa0V08:11:0000:00:0000:00:00
KE7DJD2026-08-31 18:59:5143.81495-116.0488456°78km/h18004m-7.6m/s-55.4°C1.3%0hPa0V08:12:0000:00:0000:00:00
KE7DJD2026-08-31 18:59:3043.81323-116.0518255°69km/h18156m-8.1m/s-55.9°C1.3%0hPa0V08:12:0000:00:0000:00:00
KE7DJD2026-08-31 18:59:1043.81241-116.0541249°53km/h18303m-7.3m/s-56.0°C1.3%0hPa0V08:13:0000:00:0000:00:00
KE7DJD2026-08-31 18:58:4943.81180-116.0555716°38km/h18466m-7.4m/s-55.7°C1.2%0hPa0V08:13:0000:00:0000:00:00
KE7DJD2026-08-31 18:58:2943.81062-116.0566220°55km/h18619m-7.2m/s-55.7°C1.2%0hPa0V08:13:0000:00:0000:00:00
KE7DJD2026-08-31 18:58:0943.80900-116.0584422°51km/h18782m-7.7m/s-56.5°C1.3%0hPa0V08:14:0000:00:0000:00:00
KE7DJD2026-08-31 18:57:4843.80768-116.0607220°47km/h18940m-8.2m/s-55.4°C1.3%0hPa0V08:14:0000:00:0000:00:00
KE7DJD2026-08-31 18:57:2743.80649-116.06279358°35km/h19108m-7.9m/s-54.0°C1.1%0hPa0V08:14:0000:00:0000:00:00
KE7DJD2026-08-31 18:57:0743.80543-116.06383323°26km/h19270m-7.9m/s-54.4°C1.2%0hPa0V08:14:0000:00:0000:00:00
KE7DJD2026-08-31 18:56:4643.80456-116.06405300°15km/h19443m-7.8m/s-54.2°C1.1%0hPa0V08:14:0000:00:0000:00:00
KE7DJD2026-08-31 18:56:2543.80378-116.06538127°20km/h19614m-8.1m/s-54.2°C1.1%0hPa0V08:15:0000:00:0000:00:00
KE7DJD2026-08-31 18:56:0443.80376-116.06739141°42km/h19785m-8.9m/s-53.3°C1.1%0hPa0V08:15:0000:00:0000:00:00
KE7DJD2026-08-31 18:55:4443.80406-116.06813146°38km/h19956m-9.2m/s-52.5°C1.1%0hPa0V08:16:0000:00:0000:00:00
KE7DJD2026-08-31 18:55:2343.80465-116.06811122°18km/h20148m-8.8m/s-52.2°C1.0%0hPa0V08:16:0000:00:0000:00:00
KE7DJD2026-08-31 18:55:0243.80443-116.0670026km/h20334m-8.5m/s-52.9°C1.0%0hPa0V08:16:0000:00:0000:00:00
KE7DJD2026-08-31 18:54:4143.80332-116.06537343°53km/h20522m-9.0m/s-53.9°C1.1%0hPa0V08:17:0000:00:0000:00:00
KE7DJD2026-08-31 18:54:2043.80182-116.06419328°58km/h20715m-8.9m/s-54.9°C1.1%0hPa0V08:17:0000:00:0000:00:00
KE7DJD2026-08-31 18:53:5943.80028-116.06351294°40km/h20910m-9.3m/s-55.3°C1.1%0hPa0V08:18:0000:00:0000:00:00
KE7DJD2026-08-31 18:53:3843.79951-116.06299237°22km/h21106m-9.3m/s-55.0°C1.2%0hPa0V08:18:0000:00:0000:00:00
KE7DJD2026-08-31 18:53:1843.79885-116.06257173°11km/h21299m-9.8m/s-54.9°C1.2%0hPa0V08:18:0000:00:0000:00:00
KE7DJD2026-08-31 18:52:5743.79770-116.0630765°46km/h21513m-10.4m/s-54.5°C1.1%0hPa0V08:19:0000:00:0000:00:00
KE7DJD2026-08-31 18:52:3643.79662-116.0642132°46km/h21728m-10.7m/s-54.7°C1.1%0hPa0V08:19:0000:00:0000:00:00
KE7DJD2026-08-31 18:52:1643.79579-116.06450358°55km/h21934m-11.2m/s-54.3°C1.1%0hPa0V08:20:0000:00:0000:00:00
KE7DJD2026-08-31 18:51:5543.79471-116.06467308°29km/h22154m-10.5m/s-54.7°C1.1%0hPa0V08:20:0000:00:0000:00:00
KE7DJD2026-08-31 18:51:3543.79413-116.06436262°31km/h22373m-12.3m/s-54.1°C1.0%0hPa0V08:20:0000:00:0000:00:00
KE7DJD2026-08-31 18:50:5343.79185-116.0650127°55km/h22834m-11.9m/s-52.7°C1.0%0hPa0V08:20:0000:00:0000:00:00
KE7DJD2026-08-31 18:50:3243.79142-116.06572268°27km/h23070m-10.7m/s-51.9°C0.9%0hPa0V08:21:0000:00:0000:00:00
KE7DJD2026-08-31 18:50:1143.79151-116.06532180°18km/h23312m-12.3m/s-52.0°C0.9%0hPa0V08:21:0000:00:0000:00:00
KE7DJD2026-08-31 18:49:5043.79084-116.0653823°44km/h23570m-12.2m/s-50.3°C0.8%0hPa0V08:22:0000:00:0000:00:00
KE7DJD2026-08-31 18:49:2943.79042-116.06512287°35km/h23830m-12.4m/s-50.5°C0.8%0hPa0V08:22:0000:00:0000:00:00
KE7DJD2026-08-31 18:49:0843.79073-116.06395196°37km/h24095m-13.4m/s-50.2°C0.8%0hPa0V08:22:0000:00:0000:00:00
KE7DJD2026-08-31 18:48:4743.79037-116.0631540km/h24362m-13.5m/s-51.5°C0.9%0hPa0V08:23:0000:00:0000:00:00
KE7DJD2026-08-31 18:48:2643.78968-116.06163282°38km/h24642m-14.4m/s-50.8°C0.9%0hPa0V08:23:0000:00:0000:00:00
KE7DJD2026-08-31 18:48:0643.78915-116.06113160°16km/h24923m-14.7m/s-48.9°C0.8%0hPa0V08:24:0000:00:0000:00:00
KE7DJD2026-08-31 18:47:4543.78807-116.06161352°44km/h25215m-14.5m/s-48.2°C0.7%0hPa0V08:24:0000:00:0000:00:00
KE7DJD2026-08-31 18:47:2543.78762-116.06101230°35km/h25498m-14.6m/s-47.2°C0.7%0hPa0V08:24:0000:00:0000:00:00
KE7DJD2026-08-31 18:47:0443.78730-116.0611537°44km/h25803m-15.2m/s-46.7°C0.7%0hPa0V08:25:0000:00:0000:00:00
KE7DJD2026-08-31 18:46:4343.78699-116.06112237°38km/h26119m-15.2m/s-47.5°C0.7%0hPa0V08:25:0000:00:0000:00:00
KE7DJD2026-08-31 18:46:2243.78684-116.0607540°40km/h26439m-15.6m/s-47.8°C0.7%0hPa0V08:25:0000:00:0000:00:00
KE7DJD2026-08-31 18:46:0143.78610-116.06048245°37km/h26785m-16.7m/s-47.4°C0.7%0hPa0V08:25:0000:00:0000:00:00
KE7DJD2026-08-31 18:45:4043.78638-116.0602921°42km/h27139m-17.5m/s-48.0°C0.7%0hPa0V08:25:0000:00:0000:00:00
KE7DJD2026-08-31 18:45:2143.78591-116.05935237°29km/h27480m-17.3m/s-48.0°C0.7%0hPa0V08:26:0000:00:0000:00:00
KE7DJD2026-08-31 18:44:5943.78539-116.05957357°51km/h27847m-17.3m/s-46.8°C0.7%0hPa0V08:26:0000:00:0000:00:00
KE7DJD2026-08-31 18:44:3843.78546-116.05967117°38km/h28222m-18.0m/s-44.6°C0.6%0hPa0V08:27:0000:00:0000:00:00
KE7DJD2026-08-31 18:44:1843.78522-116.05920270°57km/h28584m-17.9m/s-44.1°C0.6%0hPa0V08:27:0000:00:0000:00:00
KE7DJD2026-08-31 18:43:5743.78500-116.05780338°53km/h28979m-17.7m/s-44.9°C0.6%0hPa0V08:27:0000:00:0000:00:00
KE7DJD2026-08-31 18:43:3643.78392-116.05578174°24km/h29388m-21.1m/s-44.7°C0.6%0hPa0V08:28:0000:00:0000:00:00
KE7DJD2026-08-31 18:43:1643.78368-116.0554310°33km/h29803m-23.5m/s-44.3°C0.6%0hPa0V08:28:0000:00:0000:00:00
KE7DJD2026-08-31 18:42:5543.78292-116.05429131°13km/h30244m-16.7m/s-44.7°C0.6%0hPa0V08:29:0000:00:0000:00:00
KE7DJD2026-08-31 18:42:3543.78241-116.0547162°55km/h30674m-20.1m/s-43.7°C0.6%0hPa0V08:29:0000:00:0000:00:00
KE7DJD2026-08-31 18:42:1543.78312-116.0550663°5km/h31112m-21.5m/s-43.0°C0.5%0hPa0V08:29:0000:00:0000:00:00
KE7DJD2026-08-31 18:41:5443.78378-116.05501255°33km/h31623m-21.3m/s-43.3°C0.6%0hPa0V00:00:0000:00:0000:00:00
KE7DJD2026-08-31 18:41:3343.78383-116.05445218°26km/h32154m-27.1m/s-43.0°C0.6%0hPa0V00:00:0000:00:0000:00:00
KE7DJD2026-08-31 18:41:1343.78392-116.05356295°31km/h32757m-35.9m/s-40.2°C0.5%0hPa0V00:00:0000:00:0000:00:00
KE7DJD2026-08-31 18:40:5243.78372-116.0526449km/h32901m6.6m/s-39.9°C0.5%0hPa0V00:00:0000:00:0000:00:00
KE7DJD2026-08-31 18:40:3143.78310-116.05153303°22km/h32772m3.7m/s-40.4°C0.5%0hPa0V00:00:0000:00:0000:00:00
KE7DJD2026-08-31 18:40:1043.78277-116.05090228°29km/h32629m5.8m/s-40.6°C0.5%0hPa0V00:00:0000:00:0000:00:00
KE7DJD2026-08-31 18:39:4943.78264-116.05049353°35km/h32503m3.7m/s-41.3°C0.5%0hPa0V00:00:0000:00:0000:00:00
KE7DJD2026-08-31 18:39:2843.78314-116.04942124°49km/h32368m7.9m/s-42.8°C0.6%0hPa0V00:00:0000:00:0000:00:00
KE7DJD2026-08-31 18:39:0843.78375-116.04867265°66km/h32242m4.1m/s-43.3°C0.6%0hPa0V00:00:0000:00:0000:00:00
KE7DJD2026-08-31 18:38:4743.78485-116.04800342°20km/h32115m6.6m/s-43.1°C0.6%0hPa0V00:00:0000:00:0000:00:00
KE7DJD2026-08-31 18:38:2643.78544-116.0475227°47km/h31978m11.0m/s-44.0°C0.6%0hPa0V00:00:0000:00:0000:00:00
KE7DJD2026-08-31 18:38:0543.78526-116.0475567°38km/h31846m6.4m/s-43.8°C0.6%0hPa0V00:00:0000:00:0000:00:00
KE7DJD2026-08-31 18:37:4443.78511-116.04698136°40km/h31703m6.8m/s-43.5°C0.6%0hPa0V00:00:0000:00:0000:00:00
KE7DJD2026-08-31 18:37:2443.78512-116.04632241°64km/h31572m8.0m/s-42.7°C0.6%0hPa0V00:00:0000:00:0000:00:00
KE7DJD2026-08-31 18:37:0343.78542-116.04613318°26km/h31438m6.4m/s-42.6°C0.6%0hPa0V00:00:0000:00:0000:00:00
KE7DJD2026-08-31 18:36:4243.78651-116.0461852°27km/h31289m9.5m/s-42.3°C0.6%0hPa0V00:00:0000:00:0000:00:00
KE7DJD2026-08-31 18:36:2143.78808-116.04656107°46km/h31147m2.9m/s-43.1°C0.6%0hPa0V00:00:0000:00:0000:00:00
KE7DJD2026-08-31 18:36:0043.78918-116.0472160°51km/h30998m8.5m/s-43.1°C0.6%0hPa0V00:00:0000:00:0000:00:00
KE7DJD2026-08-31 18:35:3943.78964-116.0475866°44km/h30858m6.3m/s-43.1°C0.6%0hPa0V00:00:0000:00:0000:00:00
KE7DJD2026-08-31 18:35:1843.78947-116.04779141°57km/h30706m0.5m/s-44.0°C0.6%0hPa0V00:00:0000:00:0000:00:00
KE7DJD2026-08-31 18:34:5843.78901-116.04816281°46km/h30576m8.4m/s-45.4°C0.7%0hPa0V00:00:0000:00:0000:00:00
KE7DJD2026-08-31 18:34:3743.78808-116.04819323°60km/h30436m7.5m/s-44.8°C0.6%0hPa0V00:00:0000:00:0000:00:00
KE7DJD2026-08-31 18:34:1643.78673-116.04764334°78km/h30295m11.4m/s-44.0°C0.6%0hPa0V00:00:0000:00:0000:00:00
KE7DJD2026-08-31 18:33:5543.78512-116.0461313°42km/h30157m5.6m/s-43.6°C0.6%0hPa0V00:00:0000:00:0000:00:00
KE7DJD2026-08-31 18:33:3343.78389-116.0447167°29km/h30011m3.4m/s-44.0°C0.6%0hPa0V00:00:0000:00:0000:00:00
KE7DJD2026-08-31 18:33:1343.78314-116.04378229°13km/h29888m10.7m/s-44.2°C0.6%0hPa0V00:00:0000:00:0000:00:00
KE7DJD2026-08-31 18:32:5343.78309-116.04341283°47km/h29761m8.9m/s-43.8°C0.7%0hPa0V00:00:0000:00:0000:00:00
KE7DJD2026-08-31 18:32:3243.78365-116.0433588°7km/h29636m10.1m/s-44.2°C0.6%0hPa0V00:00:0000:00:0000:00:00
KE7DJD2026-08-31 18:32:1243.78390-116.04256132°27km/h29504m9.1m/s-44.6°C0.7%0hPa0V00:00:0000:00:0000:00:00
KE7DJD2026-08-31 18:31:5143.78338-116.04188231°16km/h29370m2.0m/s-44.9°C0.7%0hPa0V00:00:0000:00:0000:00:00
KE7DJD2026-08-31 18:31:3143.78261-116.04101300°33km/h29240m9.3m/s-45.9°C0.7%0hPa0V00:00:0000:00:0000:00:00
KE7DJD2026-08-31 18:31:1043.78226-116.03934310°40km/h29095m3.3m/s-46.6°C0.7%0hPa0V00:00:0000:00:0000:00:00
KE7DJD2026-08-31 18:30:4943.78208-116.03770345°40km/h28951m9.8m/s-46.7°C0.8%0hPa0V00:00:0000:00:0000:00:00
KE7DJD2026-08-31 18:30:2843.78187-116.03548293°53km/h28813m6.6m/s-46.7°C0.8%0hPa0V00:00:0000:00:0000:00:00
KE7DJD2026-08-31 18:30:0743.78177-116.03399234°46km/h28681m0.7m/s-45.7°C0.7%0hPa0V00:00:0000:00:0000:00:00
KE7DJD2026-08-31 18:29:4743.78164-116.03319183°15km/h28553m9.2m/s-45.4°C0.7%0hPa0V00:00:0000:00:0000:00:00
KE7DJD2026-08-31 18:29:2743.78176-116.0326443°5km/h28429m3.8m/s-45.1°C0.7%0hPa0V00:00:0000:00:0000:00:00
KE7DJD2026-08-31 18:29:0643.78201-116.03189349°24km/h28293m3.6m/s-46.2°C0.7%0hPa0V00:00:0000:00:0000:00:00
KE7DJD2026-08-31 18:28:4543.78246-116.03133357°35km/h28173m9.4m/s-46.6°C0.8%0hPa0V00:00:0000:00:0000:00:00
KE7DJD2026-08-31 18:28:2543.78242-116.0318137°29km/h28039m5.5m/s-47.5°C0.8%0hPa0V00:00:0000:00:0000:00:00
KE7DJD2026-08-31 18:28:0443.78185-116.03193197°20km/h27919m2.1m/s-47.7°C0.9%0hPa0V00:00:0000:00:0000:00:00
KE7DJD2026-08-31 18:27:4343.78104-116.03132270°26km/h27795m9.1m/s-47.3°C0.9%0hPa0V00:00:0000:00:0000:00:00
KE7DJD2026-08-31 18:27:2343.78040-116.03080341°55km/h27672m1.6m/s-47.3°C0.8%0hPa0V00:00:0000:00:0000:00:00
KE7DJD2026-08-31 18:27:0243.77970-116.03010337°35km/h27541m8.7m/s-47.4°C0.8%0hPa0V00:00:0000:00:0000:00:00
KE7DJD2026-08-31 18:26:4243.77879-116.02933323°57km/h27412m6.8m/s-47.4°C0.8%0hPa0V00:00:0000:00:0000:00:00
KE7DJD2026-08-31 18:26:2143.77778-116.02893292°35km/h27279m9.6m/s-47.7°C0.9%0hPa0V00:00:0000:00:0000:00:00
KE7DJD2026-08-31 18:26:0043.77723-116.02805280°47km/h27145m3.3m/s-47.1°C0.8%0hPa0V00:00:0000:00:0000:00:00
KE7DJD2026-08-31 18:25:4043.77729-116.02708306°20km/h27014m4.6m/s-46.9°C0.8%0hPa0V00:00:0000:00:0000:00:00
KE7DJD2026-08-31 18:25:1943.77747-116.02676245°40km/h26882m6.3m/s-46.9°C0.8%0hPa0V00:00:0000:00:0000:00:00
KE7DJD2026-08-31 18:24:5943.77783-116.0267910°15km/h26756m8.4m/s-46.6°C0.8%0hPa0V00:00:0000:00:0000:00:00
KE7DJD2026-08-31 18:24:3943.77788-116.0271157°47km/h26627m9.5m/s-46.1°C0.8%0hPa0V00:00:0000:00:0000:00:00
KE7DJD2026-08-31 18:24:1843.77748-116.02753111°15km/h26496m10.4m/s-46.6°C0.8%0hPa0V00:00:0000:00:0000:00:00
KE7DJD2026-08-31 18:23:5743.77709-116.02760195°15km/h26361m6.0m/s-47.7°C0.9%0hPa0V00:00:0000:00:0000:00:00
KE7DJD2026-08-31 18:23:3643.77682-116.02754211°9km/h26232m4.0m/s-47.8°C0.9%0hPa0V00:00:0000:00:0000:00:00
KE7DJD2026-08-31 18:23:1543.77677-116.0279469°24km/h26102m6.3m/s-48.0°C0.9%0hPa0V00:00:0000:00:0000:00:00
KE7DJD2026-08-31 18:22:5543.77669-116.0285471°24km/h25988m10.9m/s-48.3°C0.9%0hPa0V00:00:0000:00:0000:00:00
KE7DJD2026-08-31 18:22:3443.77649-116.0289723°15km/h25866m6.7m/s-47.8°C0.8%0hPa0V00:00:0000:00:0000:00:00
KE7DJD2026-08-31 18:22:1343.77595-116.0285444°16km/h25748m6.1m/s-48.4°C0.9%0hPa0V00:00:0000:00:0000:00:00
KE7DJD2026-08-31 18:21:5343.77533-116.0286627°22km/h25639m7.8m/s-48.4°C0.9%0hPa0V00:00:0000:00:0000:00:00
KE7DJD2026-08-31 18:21:3243.77488-116.0284120km/h25511m3.5m/s-48.6°C0.9%0hPa0V00:00:0000:00:0000:00:00
KE7DJD2026-08-31 18:20:5243.77382-116.02709352°5km/h25275m5.9m/s-48.9°C0.9%0hPa0V00:00:0000:00:0000:00:00
KE7DJD2026-08-31 18:20:3243.77327-116.0271244°51km/h25155m5.5m/s-49.5°C0.9%0hPa0V00:00:0000:00:0000:00:00
KE7DJD2026-08-31 18:20:1143.77197-116.02679359°26km/h25036m6.6m/s-50.7°C1.0%0hPa0V00:00:0000:00:0000:00:00
KE7DJD2026-08-31 18:19:5043.77092-116.0258426km/h24917m4.0m/s-50.8°C1.0%0hPa0V00:00:0000:00:0000:00:00
KE7DJD2026-08-31 18:19:2943.77014-116.02505281°29km/h24791m7.1m/s-50.5°C1.0%0hPa0V00:00:0000:00:0000:00:00
KE7DJD2026-08-31 18:19:0943.76947-116.02451293°31km/h24673m7.6m/s-51.1°C1.0%0hPa0V00:00:0000:00:0000:00:00
KE7DJD2026-08-31 18:18:4843.76902-116.02305298°55km/h24557m2.5m/s-51.6°C1.1%0hPa0V00:00:0000:00:0000:00:00
KE7DJD2026-08-31 18:18:2843.76864-116.02124267°53km/h24446m6.5m/s-51.4°C1.0%0hPa0V00:00:0000:00:0000:00:00
KE7DJD2026-08-31 18:18:0743.76830-116.01962288°47km/h24324m3.3m/s-51.4°C1.1%0hPa0V00:00:0000:00:0000:00:00
KE7DJD2026-08-31 18:17:4643.76781-116.01844281°55km/h24207m2.8m/s-51.4°C1.1%0hPa0V00:00:0000:00:0000:00:00
KE7DJD2026-08-31 18:17:2543.76760-116.01713277°35km/h24090m1.9m/s-51.2°C1.1%0hPa0V00:00:0000:00:0000:00:00
KE7DJD2026-08-31 18:17:0443.76780-116.01595242°13km/h23978m8.3m/s-51.4°C1.0%0hPa0V00:00:0000:00:0000:00:00
KE7DJD2026-08-31 18:16:4343.76789-116.01588125°13km/h23856m7.6m/s-51.6°C1.1%0hPa0V00:00:0000:00:0000:00:00
KE7DJD2026-08-31 18:16:2343.76777-116.01601238°20km/h23732m6.7m/s-51.4°C1.1%0hPa0V00:00:0000:00:0000:00:00
KE7DJD2026-08-31 18:16:0243.76730-116.01560357°15km/h23612m6.9m/s-51.9°C1.1%0hPa0V00:00:0000:00:0000:00:00
KE7DJD2026-08-31 18:15:4243.76669-116.0156837°22km/h23497m5.4m/s-52.2°C1.1%0hPa0V00:00:0000:00:0000:00:00
KE7DJD2026-08-31 18:15:2143.76580-116.01519285°35km/h23376m7.1m/s-52.5°C1.1%0hPa0V00:00:0000:00:0000:00:00
KE7DJD2026-08-31 18:15:0143.76522-116.01455318°13km/h23262m5.1m/s-52.4°C1.2%0hPa0V00:00:0000:00:0000:00:00
KE7DJD2026-08-31 18:14:4143.76519-116.01464138°20km/h23134m4.2m/s-52.7°C1.2%0hPa0V00:00:0000:00:0000:00:00
KE7DJD2026-08-31 18:14:2043.76524-116.0150458°13km/h23004m7.1m/s-52.0°C1.1%0hPa0V00:00:0000:00:0000:00:00
KE7DJD2026-08-31 18:13:5943.76504-116.0159183°38km/h22883m5.2m/s-51.9°C1.1%0hPa0V00:00:0000:00:0000:00:00
KE7DJD2026-08-31 18:13:3943.76401-116.0170743°24km/h22768m5.6m/s-52.2°C1.2%0hPa0V00:00:0000:00:0000:00:00
KE7DJD2026-08-31 18:12:5743.76164-116.01805357°49km/h22533m7.0m/s-53.0°C1.3%0hPa0V00:00:0000:00:0000:00:00
KE7DJD2026-08-31 18:12:3643.76036-116.01794348°27km/h22419m6.6m/s-52.8°C1.1%0hPa0V00:00:0000:00:0000:00:00
KE7DJD2026-08-31 18:12:1543.75932-116.01708298°16km/h22295m5.1m/s-53.4°C1.2%0hPa0V00:00:0000:00:0000:00:00
KE7DJD2026-08-31 18:11:5543.75880-116.01665233°11km/h22189m5.5m/s-53.9°C1.2%0hPa0V00:00:0000:00:0000:00:00
KE7DJD2026-08-31 18:11:3543.75828-116.0169111km/h22082m6.0m/s-53.9°C1.3%0hPa0V00:00:0000:00:0000:00:00
KE7DJD2026-08-31 18:11:1443.75733-116.01678361°31km/h21967m7.6m/s-54.2°C1.3%0hPa0V00:00:0000:00:0000:00:00
KE7DJD2026-08-31 18:10:5443.75625-116.01676360°35km/h21856m4.3m/s-54.3°C1.3%0hPa0V00:00:0000:00:0000:00:00
KE7DJD2026-08-31 18:10:3343.75532-116.01603293°16km/h21738m5.3m/s-54.3°C1.3%0hPa0V00:00:0000:00:0000:00:00
KE7DJD2026-08-31 18:10:1243.75460-116.0161455°24km/h21624m4.3m/s-54.0°C1.3%0hPa0V00:00:0000:00:0000:00:00
KE7DJD2026-08-31 18:09:5243.75372-116.01666337°15km/h21509m4.0m/s-53.6°C1.3%0hPa0V00:00:0000:00:0000:00:00
KE7DJD2026-08-31 18:09:3143.75248-116.01714312°16km/h21391m7.1m/s-53.6°C1.2%0hPa0V00:00:0000:00:0000:00:00
KE7DJD2026-08-31 18:09:1143.75134-116.0171037°31km/h21277m5.4m/s-54.0°C1.3%0hPa0V00:00:0000:00:0000:00:00
KE7DJD2026-08-31 18:08:5143.75068-116.01675332°18km/h21164m7.2m/s-53.8°C1.3%0hPa0V00:00:0000:00:0000:00:00
KE7DJD2026-08-31 18:08:3043.75030-116.0162330°7km/h21048m5.0m/s-54.3°C1.4%0hPa0V00:00:0000:00:0000:00:00
KE7DJD2026-08-31 18:08:1043.75011-116.01546258°24km/h20934m5.1m/s-54.5°C1.3%0hPa0V00:00:0000:00:0000:00:00
KE7DJD2026-08-31 18:07:4943.74986-116.0153146°9km/h20818m5.9m/s-54.4°C1.4%0hPa0V00:00:0000:00:0000:00:00
KE7DJD2026-08-31 18:07:2843.74933-116.014945km/h20699m4.4m/s-54.4°C1.4%0hPa0V00:00:0000:00:0000:00:00
KE7DJD2026-08-31 18:07:0743.74842-116.01466303°18km/h20584m5.8m/s-54.1°C1.3%0hPa0V00:00:0000:00:0000:00:00
KE7DJD2026-08-31 18:06:4743.74770-116.0141226°18km/h20472m4.2m/s-53.9°C1.3%0hPa0V00:00:0000:00:0000:00:00
KE7DJD2026-08-31 18:06:2643.74730-116.01318263°24km/h20358m5.0m/s-53.4°C1.3%0hPa0V00:00:0000:00:0000:00:00
KE7DJD2026-08-31 18:06:0743.74716-116.0123139°18km/h20248m7.3m/s-52.9°C1.3%0hPa0V00:00:0000:00:0000:00:00
KE7DJD2026-08-31 18:05:4643.74748-116.01220194°20km/h20131m7.1m/s-52.4°C1.2%0hPa0V00:00:0000:00:0000:00:00
KE7DJD2026-08-31 18:05:2543.74806-116.0131592°31km/h20018m2.1m/s-53.2°C1.3%0hPa0V00:00:0000:00:0000:00:00
KE7DJD2026-08-31 18:05:0543.74845-116.01449124°40km/h19908m4.1m/s-54.6°C1.3%0hPa0V00:00:0000:00:0000:00:00
KE7DJD2026-08-31 18:04:4443.74847-116.0167188°35km/h19792m6.6m/s-55.7°C1.5%0hPa0V00:00:0000:00:0000:00:00
KE7DJD2026-08-31 18:04:2343.74781-116.0190035°27km/h19678m2.5m/s-56.3°C1.5%0hPa0V00:00:0000:00:0000:00:00
KE7DJD2026-08-31 18:04:0343.74696-116.0205981°27km/h19573m4.3m/s-56.0°C1.5%0hPa0V00:00:0000:00:0000:00:00
KE7DJD2026-08-31 18:03:4243.74619-116.0213934°9km/h19461m5.1m/s-56.5°C1.5%0hPa0V00:00:0000:00:0000:00:00
KE7DJD2026-08-31 18:03:2243.74564-116.0225264°24km/h19356m6.3m/s-56.6°C1.5%0hPa0V00:00:0000:00:0000:00:00
KE7DJD2026-08-31 18:03:0143.74435-116.0241148°53km/h19244m5.4m/s-56.5°C1.5%0hPa0V00:00:0000:00:0000:00:00
KE7DJD2026-08-31 18:02:4043.74296-116.0263156°38km/h19133m6.7m/s-57.0°C1.5%0hPa0V00:00:0000:00:0000:00:00
KE7DJD2026-08-31 18:02:1943.74170-116.0285368°53km/h19022m3.8m/s-58.1°C1.7%0hPa0V00:00:0000:00:0000:00:00
KE7DJD2026-08-31 18:01:5943.74014-116.0304326°47km/h18918m6.2m/s-58.5°C1.7%0hPa0V00:00:0000:00:0000:00:00
KE7DJD2026-08-31 18:01:3943.73827-116.0317834°33km/h18817m6.5m/s-58.0°C1.7%0hPa0V00:00:0000:00:0000:00:00
KE7DJD2026-08-31 18:01:1843.73677-116.0326424°33km/h18700m5.7m/s-57.0°C1.6%0hPa0V00:00:0000:00:0000:00:00
KE7DJD2026-08-31 18:00:5743.73559-116.03314348°11km/h18588m4.4m/s-56.2°C1.6%0hPa0V00:00:0000:00:0000:00:00
KE7DJD2026-08-31 18:00:1643.73464-116.0346852°27km/h18375m4.9m/s-56.4°C1.6%0hPa0V00:00:0000:00:0000:00:00
KE7DJD2026-08-31 17:59:5543.73400-116.0365374°46km/h18266m4.6m/s-56.4°C1.6%0hPa0V00:00:0000:00:0000:00:00
KE7DJD2026-08-31 17:59:3543.73296-116.0387354°57km/h18164m7.0m/s-56.2°C1.6%0hPa0V00:00:0000:00:0000:00:00
KE7DJD2026-08-31 17:59:1543.73151-116.0410642°44km/h18062m5.4m/s-55.9°C1.6%0hPa0V00:00:0000:00:0000:00:00
KE7DJD2026-08-31 17:58:5543.72964-116.0432735°44km/h17960m5.4m/s-55.5°C1.5%0hPa0V00:00:0000:00:0000:00:00
KE7DJD2026-08-31 17:58:3443.72717-116.0450136°47km/h17857m2.8m/s-55.1°C1.5%0hPa0V00:00:0000:00:0000:00:00
KE7DJD2026-08-31 17:58:1343.72436-116.0459842km/h17751m6.1m/s-55.4°C1.5%0hPa0V00:00:0000:00:0000:00:00
KE7DJD2026-08-31 17:57:5243.72203-116.04642356°40km/h17645m6.3m/s-56.0°C1.6%0hPa0V00:00:0000:00:0000:00:00
KE7DJD2026-08-31 17:57:3143.72009-116.0471612°47km/h17540m4.9m/s-55.6°C1.6%0hPa0V00:00:0000:00:0000:00:00
KE7DJD2026-08-31 17:57:1143.71861-116.0480146°16km/h17437m5.4m/s-55.0°C1.6%0hPa0V00:00:0000:00:0000:00:00
KE7DJD2026-08-31 17:56:5043.71744-116.0493555°29km/h17328m4.1m/s-55.5°C1.6%0hPa0V00:00:0000:00:0000:00:00
KE7DJD2026-08-31 17:56:3043.71612-116.0508061°38km/h17231m3.9m/s-55.3°C1.5%0hPa0V00:00:0000:00:0000:00:00
KE7DJD2026-08-31 17:56:1043.71462-116.0527648°20km/h17126m5.0m/s-56.2°C1.6%0hPa0V00:00:0000:00:0000:00:00
KE7DJD2026-08-31 17:55:4843.71338-116.0549249°27km/h17023m5.1m/s-57.1°C1.8%0hPa0V00:00:0000:00:0000:00:00
KE7DJD2026-08-31 17:55:2743.71196-116.0569544°42km/h16918m6.9m/s-56.9°C1.8%0hPa0V00:00:0000:00:0000:00:00
KE7DJD2026-08-31 17:55:0643.71046-116.0587047°33km/h16813m5.8m/s-56.3°C1.7%0hPa0V00:00:0000:00:0000:00:00
KE7DJD2026-08-31 17:54:4643.70901-116.0603748°35km/h16719m5.8m/s-56.0°C1.7%0hPa0V00:00:0000:00:0000:00:00
KE7DJD2026-08-31 17:54:2543.70738-116.0620648°46km/h16617m5.2m/s-56.4°C1.8%0hPa0V00:00:0000:00:0000:00:00
KE7DJD2026-08-31 17:54:0443.70612-116.0635465°29km/h16510m4.9m/s-56.1°C1.8%0hPa0V00:00:0000:00:0000:00:00
KE7DJD2026-08-31 17:53:4343.70552-116.0652450°33km/h16409m5.3m/s-56.5°C1.8%0hPa0V00:00:0000:00:0000:00:00
KE7DJD2026-08-31 17:53:2243.70504-116.0673272°29km/h16312m3.0m/s-56.8°C1.8%0hPa0V00:00:0000:00:0000:00:00
KE7DJD2026-08-31 17:53:0143.70451-116.0699991°40km/h16210m3.9m/s-57.5°C2.0%0hPa0V00:00:0000:00:0000:00:00
KE7DJD2026-08-31 17:52:4143.70334-116.0727559°47km/h16116m5.7m/s-57.2°C2.0%0hPa0V00:00:0000:00:0000:00:00
KE7DJD2026-08-31 17:52:2143.70179-116.0757859°57km/h16019m3.3m/s-57.3°C2.0%0hPa0V00:00:0000:00:0000:00:00
KE7DJD2026-08-31 17:52:0043.69983-116.0789847°51km/h15919m5.9m/s-57.2°C2.1%0hPa0V00:00:0000:00:0000:00:00
KE7DJD2026-08-31 17:51:4043.69827-116.0815764°46km/h15826m4.2m/s-56.7°C2.1%0hPa0V00:00:0000:00:0000:00:00
KE7DJD2026-08-31 17:51:1943.69702-116.0842768°38km/h15729m5.9m/s-56.8°C2.0%0hPa0V00:00:0000:00:0000:00:00
KE7DJD2026-08-31 17:50:5843.69588-116.0870564°42km/h15628m5.5m/s-57.3°C2.1%0hPa0V00:00:0000:00:0000:00:00
KE7DJD2026-08-31 17:50:3943.69440-116.0896058°53km/h15530m3.3m/s-58.0°C2.4%0hPa0V00:00:0000:00:0000:00:00
KE7DJD2026-08-31 17:50:1743.69258-116.0922734°57km/h15431m6.8m/s-58.2°C2.5%0hPa0V00:00:0000:00:0000:00:00
KE7DJD2026-08-31 17:49:5743.69086-116.0941654°26km/h15327m3.3m/s-58.1°C2.6%0hPa0V00:00:0000:00:0000:00:00
KE7DJD2026-08-31 17:49:3643.68955-116.0957545°46km/h15230m4.8m/s-59.1°C3.1%0hPa0V00:00:0000:00:0000:00:00
KE7DJD2026-08-31 17:49:1643.68882-116.0981871°38km/h15135m5.9m/s-59.5°C3.2%0hPa0V00:00:0000:00:0000:00:00
KE7DJD2026-08-31 17:48:5643.68816-116.1015867°60km/h15038m4.5m/s-59.8°C3.4%0hPa0V00:00:0000:00:0000:00:00
KE7DJD2026-08-31 17:48:3443.68690-116.1056058°62km/h14936m5.8m/s-59.8°C3.8%0hPa0V00:00:0000:00:0000:00:00
KE7DJD2026-08-31 17:48:1443.68511-116.1087633°57km/h14818m4.4m/s-59.5°C3.8%0hPa0V00:00:0000:00:0000:00:00
KE7DJD2026-08-31 17:47:5343.68282-116.1113332°47km/h14704m5.8m/s-59.1°C3.8%0hPa0V00:00:0000:00:0000:00:00
KE7DJD2026-08-31 17:47:3343.68079-116.1131434°42km/h14605m5.6m/s-59.1°C4.2%0hPa0V00:00:0000:00:0000:00:00
KE7DJD2026-08-31 17:47:1243.67905-116.1148244°47km/h14503m6.8m/s-59.5°C4.6%0hPa0V00:00:0000:00:0000:00:00
KE7DJD2026-08-31 17:46:5243.67740-116.1167634°44km/h14398m4.9m/s-58.4°C4.5%0hPa0V00:00:0000:00:0000:00:00
KE7DJD2026-08-31 17:46:3243.67554-116.1188932°42km/h14302m4.1m/s-58.8°C4.9%0hPa0V00:00:0000:00:0000:00:00
KE7DJD2026-08-31 17:46:1143.67412-116.1210957°44km/h14201m3.8m/s-59.1°C5.4%0hPa0V00:00:0000:00:0000:00:00
KE7DJD2026-08-31 17:45:5143.67271-116.1236542°57km/h14094m4.1m/s-59.1°C5.7%0hPa0V00:00:0000:00:0000:00:00
KE7DJD2026-08-31 17:45:2843.67041-116.1266244°57km/h13979m5.6m/s-59.2°C6.2%0hPa0V00:00:0000:00:0000:00:00
KE7DJD2026-08-31 17:45:0743.66804-116.1290628°53km/h13882m6.7m/s-60.0°C7.0%0hPa0V00:00:0000:00:0000:00:00
KE7DJD2026-08-31 17:44:4643.66561-116.1304830°40km/h13782m4.8m/s-59.8°C7.5%0hPa0V00:00:0000:00:0000:00:00
KE7DJD2026-08-31 17:44:2543.66369-116.1319817°29km/h13685m4.9m/s-59.8°C8.4%0hPa0V00:00:0000:00:0000:00:00
KE7DJD2026-08-31 17:44:0443.66185-116.1333827°35km/h13583m4.9m/s-59.9°C10.2%0hPa0V00:00:0000:00:0000:00:00
KE7DJD2026-08-31 17:43:4543.65982-116.1341324km/h13485m3.8m/s-59.5°C12.0%0hPa0V00:00:0000:00:0000:00:00
KE7DJD2026-08-31 17:43:2443.65767-116.1348217°31km/h13375m5.1m/s-59.1°C15.2%0hPa0V00:00:0000:00:0000:00:00
KE7DJD2026-08-31 17:43:0443.65636-116.1355717°26km/h13280m4.1m/s-60.7°C24.0%0hPa0V00:00:0000:00:0000:00:00
KE7DJD2026-08-31 17:42:4443.65511-116.1364020°33km/h13187m5.4m/s-61.5°C29.3%0hPa0V00:00:0000:00:0000:00:00
KE7DJD2026-08-31 17:42:2343.65341-116.1370118°29km/h13092m5.3m/s-61.6°C30.6%0hPa0V00:00:0000:00:0000:00:00
KE7DJD2026-08-31 17:42:0343.65180-116.1372512°37km/h13005m5.1m/s-61.2°C32.3%0hPa0V00:00:0000:00:0000:00:00
KE7DJD2026-08-31 17:41:4243.65033-116.13718361°26km/h12877m6.0m/s-60.6°C30.5%0hPa0V00:00:0000:00:0000:00:00
KE7DJD2026-08-31 17:41:2243.64966-116.13693347°16km/h12781m3.7m/s-60.5°C32.1%0hPa0V00:00:0000:00:0000:00:00
KE7DJD2026-08-31 17:41:0343.64897-116.1370018km/h12688m5.6m/s-59.9°C31.9%0hPa0V00:00:0000:00:0000:00:00
KE7DJD2026-08-31 17:40:4143.64795-116.13692355°26km/h12592m5.7m/s-59.3°C31.0%0hPa0V00:00:0000:00:0000:00:00
KE7DJD2026-08-31 17:40:2143.64676-116.13692354°24km/h12500m5.6m/s-58.6°C29.9%0hPa0V00:00:0000:00:0000:00:00
KE7DJD2026-08-31 17:40:0043.64543-116.13660339°29km/h12403m5.3m/s-58.1°C29.2%0hPa0V00:00:0000:00:0000:00:00
KE7DJD2026-08-31 17:39:4043.64420-116.13606342°24km/h12311m5.5m/s-57.5°C27.5%0hPa0V00:00:0000:00:0000:00:00
KE7DJD2026-08-31 17:39:2143.64296-116.13540340°40km/h12219m3.7m/s-56.8°C26.5%0hPa0V00:00:0000:00:0000:00:00
KE7DJD2026-08-31 17:39:0043.64172-116.13460336°37km/h12129m4.1m/s-56.0°C27.5%0hPa0V00:00:0000:00:0000:00:00
KE7DJD2026-08-31 17:38:3943.64064-116.13384351°15km/h12030m3.2m/s-55.5°C29.7%0hPa0V00:00:0000:00:0000:00:00
KE7DJD2026-08-31 17:38:1943.63971-116.13305332°20km/h11939m4.1m/s-54.9°C30.6%0hPa0V00:00:0000:00:0000:00:00
KE7DJD2026-08-31 17:37:5843.63877-116.13229347°22km/h11846m6.3m/s-54.4°C32.2%0hPa0V00:00:0000:00:0000:00:00
KE7DJD2026-08-31 17:37:3843.63751-116.13136329°31km/h11753m4.1m/s-54.2°C35.9%0hPa0V00:00:0000:00:0000:00:00
KE7DJD2026-08-31 17:37:1743.63626-116.13032345°26km/h11659m5.0m/s-53.5°C36.0%0hPa0V00:00:0000:00:0000:00:00
KE7DJD2026-08-31 17:36:5643.63508-116.12959320°20km/h11565m3.4m/s-52.9°C38.1%0hPa0V00:00:0000:00:0000:00:00
KE7DJD2026-08-31 17:36:3543.63386-116.12878356°11km/h11472m4.4m/s-52.3°C37.0%0hPa0V00:00:0000:00:0000:00:00
KE7DJD2026-08-31 17:36:1443.63279-116.12813340°26km/h11381m4.0m/s-51.5°C35.3%0hPa0V00:00:0000:00:0000:00:00
KE7DJD2026-08-31 17:35:5343.63185-116.12743358°22km/h11286m5.1m/s-50.8°C36.5%0hPa0V00:00:0000:00:0000:00:00
KE7DJD2026-08-31 17:35:3243.63102-116.12689307°9km/h11194m4.2m/s-50.0°C35.9%0hPa0V00:00:0000:00:0000:00:00
KE7DJD2026-08-31 17:35:1243.63032-116.12655358°16km/h11098m3.1m/s-49.5°C35.0%0hPa0V00:00:0000:00:0000:00:00
KE7DJD2026-08-31 17:34:3043.62903-116.12611355°11km/h10905m4.9m/s-47.9°C35.8%0hPa0V00:00:0000:00:0000:00:00
KE7DJD2026-08-31 17:34:0943.62853-116.1260111km/h10812m5.3m/s-47.3°C38.0%0hPa0V00:00:0000:00:0000:00:00
KE7DJD2026-08-31 17:33:4843.62792-116.1259822°9km/h10717m5.6m/s-46.5°C37.7%0hPa0V00:00:0000:00:0000:00:00
KE7DJD2026-08-31 17:33:2743.62741-116.1259135°7km/h10618m4.8m/s-45.8°C38.3%0hPa0V00:00:0000:00:0000:00:00
KE7DJD2026-08-31 17:33:0643.62694-116.12581304°7km/h10522m4.1m/s-44.8°C36.2%0hPa0V00:00:0000:00:0000:00:00
KE7DJD2026-08-31 17:32:4643.62677-116.12569264°5km/h10430m4.0m/s-44.2°C36.2%0hPa0V00:00:0000:00:0000:00:00
KE7DJD2026-08-31 17:32:2543.62668-116.12565231°2km/h10332m5.5m/s-43.4°C39.8%0hPa0V00:00:0000:00:0000:00:00
KE7DJD2026-08-31 17:32:0443.62673-116.12566146°7km/h10239m5.7m/s-42.6°C39.5%0hPa0V00:00:0000:00:0000:00:00
KE7DJD2026-08-31 17:31:4443.62680-116.12562311°5km/h10149m4.5m/s-42.0°C40.3%0hPa0V00:00:0000:00:0000:00:00
KE7DJD2026-08-31 17:31:2343.62687-116.1257046°9km/h10058m4.8m/s-41.2°C48.5%0hPa0V00:00:0000:00:0000:00:00
KE7DJD2026-08-31 17:31:0443.62690-116.12599134°11km/h9968m4.1m/s-40.6°C49.8%0hPa0V00:00:0000:00:0000:00:00
KE7DJD2026-08-31 17:30:4343.62677-116.12630117°11km/h9881m4.2m/s-39.8°C47.6%0hPa0V00:00:0000:00:0000:00:00
KE7DJD2026-08-31 17:30:2343.62651-116.1264912°5km/h9787m4.5m/s-39.0°C49.6%0hPa0V00:00:0000:00:0000:00:00
KE7DJD2026-08-31 17:29:4143.62576-116.1264322km/h9601m4.4m/s-37.5°C44.3%0hPa0V00:00:0000:00:0000:00:00
KE7DJD2026-08-31 17:29:2043.62520-116.12643351°18km/h9506m5.2m/s-36.5°C37.6%0hPa0V00:00:0000:00:0000:00:00
KE7DJD2026-08-31 17:28:5943.62460-116.1265515km/h9415m5.2m/s-35.7°C35.2%0hPa0V00:00:0000:00:0000:00:00
KE7DJD2026-08-31 17:28:3843.62396-116.12662347°13km/h9322m4.2m/s-34.8°C31.8%0hPa0V00:00:0000:00:0000:00:00
KE7DJD2026-08-31 17:28:1743.62332-116.12672356°15km/h9230m5.3m/s-33.9°C28.4%0hPa0V00:00:0000:00:0000:00:00
KE7DJD2026-08-31 17:27:5643.62279-116.1268877°22km/h9122m6.5m/s-33.0°C28.4%0hPa0V00:00:0000:00:0000:00:00
KE7DJD2026-08-31 17:27:3543.62234-116.1268314°16km/h8993m8.2m/s-32.0°C27.2%0hPa0V00:00:0000:00:0000:00:00
KE7DJD2026-08-31 17:27:1443.62129-116.12669325°27km/h8898m2.9m/s-31.2°C27.0%0hPa0V00:00:0000:00:0000:00:00
KE7DJD2026-08-31 17:26:5343.62029-116.1265312°31km/h8788m5.9m/s-30.3°C29.2%0hPa0V00:00:0000:00:0000:00:00
KE7DJD2026-08-31 17:26:3243.61909-116.1268126°22km/h8686m5.0m/s-29.4°C26.8%0hPa0V00:00:0000:00:0000:00:00
KE7DJD2026-08-31 17:26:1143.61788-116.1271733°26km/h8593m5.0m/s-28.6°C23.9%0hPa0V00:00:0000:00:0000:00:00
KE7DJD2026-08-31 17:25:5143.61675-116.1276824km/h8499m5.0m/s-28.0°C32.8%0hPa0V00:00:0000:00:0000:00:00
KE7DJD2026-08-31 17:25:3043.61570-116.1285617°11km/h8405m3.8m/s-27.3°C27.6%0hPa0V00:00:0000:00:0000:00:00
KE7DJD2026-08-31 17:25:1043.61474-116.1295829°29km/h8321m4.7m/s-26.7°C31.2%0hPa0V00:00:0000:00:0000:00:00
KE7DJD2026-08-31 17:24:4943.61369-116.1307741°26km/h8225m4.9m/s-26.0°C33.8%0hPa0V00:00:0000:00:0000:00:00
KE7DJD2026-08-31 17:24:2843.61253-116.1322138°33km/h8130m4.6m/s-25.3°C37.2%0hPa0V00:00:0000:00:0000:00:00
KE7DJD2026-08-31 17:24:0743.61125-116.1335565°27km/h8036m4.2m/s-24.4°C37.3%0hPa0V00:00:0000:00:0000:00:00
KE7DJD2026-08-31 17:23:2543.60896-116.1365658°22km/h7852m3.4m/s-22.9°C36.3%0hPa0V00:00:0000:00:0000:00:00
KE7DJD2026-08-31 17:23:0543.60790-116.1379838°29km/h7762m4.6m/s-22.3°C38.7%0hPa0V00:00:0000:00:0000:00:00
KE7DJD2026-08-31 17:22:4443.60683-116.1393024°37km/h7667m3.3m/s-21.7°C38.8%0hPa0V00:00:0000:00:0000:00:00
KE7DJD2026-08-31 17:22:2443.60573-116.1406653°33km/h7575m4.4m/s-21.1°C39.6%0hPa0V00:00:0000:00:0000:00:00
KE7DJD2026-08-31 17:22:0343.60472-116.1421058°18km/h7487m4.8m/s-20.7°C42.3%0hPa0V00:00:0000:00:0000:00:00
KE7DJD2026-08-31 17:21:4243.60375-116.1436847°40km/h7400m3.9m/s-20.0°C41.9%0hPa0V00:00:0000:00:0000:00:00
KE7DJD2026-08-31 17:21:2143.60279-116.1452236°38km/h7314m3.8m/s-19.4°C41.2%0hPa0V00:00:0000:00:0000:00:00
KE7DJD2026-08-31 17:21:0043.60153-116.1466645°33km/h7230m4.5m/s-18.9°C41.5%0hPa0V00:00:0000:00:0000:00:00
KE7DJD2026-08-31 17:20:4143.60030-116.1480666°31km/h7149m3.8m/s-18.3°C40.8%0hPa0V00:00:0000:00:0000:00:00
KE7DJD2026-08-31 17:20:1943.59920-116.1494726km/h7058m2.3m/s-17.9°C40.4%0hPa0V00:00:0000:00:0000:00:00
KE7DJD2026-08-31 17:19:5843.59808-116.1508655°20km/h6942m4.5m/s-17.0°C37.4%0hPa0V00:00:0000:00:0000:00:00
KE7DJD2026-08-31 17:19:3743.59682-116.1525836°24km/h6848m5.2m/s-16.3°C36.8%0hPa0V00:00:0000:00:0000:00:00
KE7DJD2026-08-31 17:19:1643.59555-116.1541648°46km/h6741m5.7m/s-15.3°C35.5%0hPa0V00:00:0000:00:0000:00:00
KE7DJD2026-08-31 17:18:5543.59439-116.1558840°46km/h6629m6.2m/s-14.9°C41.3%0hPa0V00:00:0000:00:0000:00:00
KE7DJD2026-08-31 17:18:3443.59292-116.1577933km/h6505m4.1m/s-14.4°C42.1%0hPa0V00:00:0000:00:0000:00:00
KE7DJD2026-08-31 17:18:1443.59178-116.1593171°16km/h6396m5.8m/s-13.7°C39.9%0hPa0V00:00:0000:00:0000:00:00
KE7DJD2026-08-31 17:17:5343.59069-116.16046355°22km/h6290m4.3m/s-13.4°C43.5%0hPa0V00:00:0000:00:0000:00:00
KE7DJD2026-08-31 17:17:3343.58965-116.16124356°11km/h6201m3.5m/s-12.7°C41.7%0hPa0V00:00:0000:00:0000:00:00
KE7DJD2026-08-31 17:17:1243.58841-116.1623342°31km/h6102m7.7m/s-11.9°C39.5%0hPa0V00:00:0000:00:0000:00:00
KE7DJD2026-08-31 17:16:5343.58777-116.1633446°44km/h5972m5.2m/s-10.8°C38.4%0hPa0V00:00:0000:00:0000:00:00
KE7DJD2026-08-31 17:16:3243.58682-116.1650387°24km/h5862m6.1m/s-10.7°C41.8%0hPa0V00:00:0000:00:0000:00:00
KE7DJD2026-08-31 17:16:1143.58596-116.1664350°20km/h5749m5.1m/s-10.0°C41.1%0hPa0V00:00:0000:00:0000:00:00
KE7DJD2026-08-31 17:15:5243.58512-116.1676630°42km/h5634m5.0m/s-9.3°C41.9%0hPa0V00:00:0000:00:0000:00:00
KE7DJD2026-08-31 17:15:3143.58422-116.1696733°38km/h5513m3.7m/s-8.4°C42.5%0hPa0V00:00:0000:00:0000:00:00
KE7DJD2026-08-31 17:15:1043.58355-116.17132106°22km/h5389m6.2m/s-7.4°C41.3%0hPa0V00:00:0000:00:0000:00:00
KE7DJD2026-08-31 17:14:5043.58306-116.1733541°38km/h5268m5.8m/s-6.5°C41.3%0hPa0V00:00:0000:00:0000:00:00
KE7DJD2026-08-31 17:14:2943.58245-116.1752794°38km/h5148m6.0m/s-5.7°C40.8%0hPa0V00:00:0000:00:0000:00:00
KE7DJD2026-08-31 17:14:0843.58170-116.1774448°15km/h5028m5.5m/s-4.7°C40.0%0hPa0V00:00:0000:00:0000:00:00
KE7DJD2026-08-31 17:13:4843.58097-116.17947101°29km/h4918m4.7m/s-3.8°C39.7%0hPa0V00:00:0000:00:0000:00:00
KE7DJD2026-08-31 17:13:2743.58071-116.1815943°42km/h4809m6.6m/s-2.9°C38.8%0hPa0V00:00:0000:00:0000:00:00
KE7DJD2026-08-31 17:13:0643.58008-116.1833137°33km/h4687m5.5m/s-1.8°C36.4%0hPa0V00:00:0000:00:0000:00:00
KE7DJD2026-08-31 17:12:4543.57974-116.1852993°40km/h4559m6.7m/s-0.8°C35.3%0hPa0V00:00:0000:00:0000:00:00
KE7DJD2026-08-31 17:12:2543.57912-116.1877058°51km/h4442m5.4m/s-0.1°C27.1%0hPa0V00:00:0000:00:0000:00:00
KE7DJD2026-08-31 17:12:0443.57838-116.19019101°29km/h4316m7.0m/s0.4°C29.3%0hPa0V00:00:0000:00:0000:00:00
KE7DJD2026-08-31 17:11:4343.57794-116.1930447°35km/h4198m7.3m/s1.1°C16.4%0hPa0V00:00:0000:00:0000:00:00
KE7DJD2026-08-31 17:11:2243.57688-116.1954945°49km/h4076m4.2m/s0.9°C19.9%0hPa0V00:00:0000:00:0000:00:00
KE7DJD2026-08-31 17:10:4143.57559-116.1989785°20km/h3855m5.2m/s2.1°C30.1%0hPa0V00:00:0000:00:0000:00:00
KE7DJD2026-08-31 17:10:2143.57497-116.2003064°7km/h3742m6.3m/s2.7°C34.8%0hPa0V00:00:0000:00:0000:00:00
KE7DJD2026-08-31 17:10:0043.57484-116.20255128°27km/h3624m4.3m/s3.4°C45.8%0hPa0V00:00:0000:00:0000:00:00
KE7DJD2026-08-31 17:09:4043.57477-116.2046866°37km/h3514m6.0m/s4.1°C46.6%0hPa0V00:00:0000:00:0000:00:00
KE7DJD2026-08-31 17:09:2143.57481-116.2066385°40km/h3401m4.8m/s4.8°C39.1%0hPa0V00:00:0000:00:0000:00:00
KE7DJD2026-08-31 17:08:5943.57476-116.20834134°11km/h3289m5.2m/s5.7°C34.9%0hPa0V00:00:0000:00:0000:00:00
KE7DJD2026-08-31 17:08:3943.57458-116.20986103°16km/h3172m5.5m/s6.7°C33.8%0hPa0V00:00:0000:00:0000:00:00
KE7DJD2026-08-31 17:08:1943.57387-116.2115132°35km/h3050m7.5m/s7.6°C28.3%0hPa0V00:00:0000:00:0000:00:00
KE7DJD2026-08-31 17:07:5843.57303-116.2129124km/h2933m5.8m/s8.6°C35.1%0hPa0V00:00:0000:00:0000:00:00
KE7DJD2026-08-31 17:07:3743.57257-116.2142567°37km/h2811m5.8m/s9.8°C24.7%0hPa0V00:00:0000:00:0000:00:00
KE7DJD2026-08-31 17:07:1643.57219-116.2154272°33km/h2693m5.3m/s10.9°C22.8%0hPa0V00:00:0000:00:0000:00:00
KE7DJD2026-08-31 17:06:5543.57207-116.21634150°18km/h2577m5.6m/s11.8°C10.6%0hPa0V00:00:0000:00:0000:00:00
KE7DJD2026-08-31 17:06:3543.57184-116.21699322°9km/h2469m4.9m/s11.7°C14.9%0hPa0V00:00:0000:00:0000:00:00
KE7DJD2026-08-31 17:06:1443.57169-116.21725203°13km/h2366m4.7m/s12.3°C16.4%0hPa0V00:00:0000:00:0000:00:00
KE7DJD2026-08-31 17:05:5443.57166-116.2171210°20km/h2252m5.0m/s12.6°C18.3%0hPa0V00:00:0000:00:0000:00:00
KE7DJD2026-08-31 17:05:3443.57126-116.21722112°7km/h2149m4.7m/s13.2°C20.9%0hPa0V00:00:0000:00:0000:00:00
KE7DJD2026-08-31 17:05:1343.57084-116.21685245°9km/h2027m4.4m/s14.1°C23.1%0hPa0V00:00:0000:00:0000:00:00
KE7DJD2026-08-31 17:04:5343.57025-116.21617294°27km/h1914m6.8m/s14.8°C23.8%0hPa0V00:00:0000:00:0000:00:00
KE7DJD2026-08-31 17:04:3243.56984-116.21535288°31km/h1796m5.8m/s15.4°C24.2%0hPa0V00:00:0000:00:0000:00:00
KE7DJD2026-08-31 17:04:1243.56949-116.21475280°24km/h1678m5.4m/s15.5°C16.1%0hPa0V00:00:0000:00:0000:00:00
KE7DJD2026-08-31 17:03:5243.56896-116.21387337°26km/h1571m5.7m/s16.0°C0%0hPa0V00:00:0000:00:0000:00:00
KE7DJD2026-08-31 17:03:3243.56863-116.21354217°11km/h1462m6.0m/s0°C0%0hPa0V00:00:0000:00:0000:00:00


GPX KML Map

© wettersonde.net (DO2JMG) - 2026  -  -